Flight Track Log - Related Links

Times and Time Zones

All times are in EDT time to prevent confusion due to time zone crossing. See the AWE1940 flight status page for this flight to view local times or setup timezone preferences in your user account.


Time Position Orientation Groundspeed Altitude Reporting Facility
EDT Latitude Longitude Course Direction KTS MPH feet Rate Location/Type
Sun 10:21:03 PM 35.1928 -80.9356 72° East 167 192 1,700  Level Atlanta Center
Sun 10:21:39 PM 35.1617 -80.9342 178° South 179 206 2,600 2,227 Climbing Atlanta Center
Sun 10:22:40 PM 35.1081 -80.8831 142° Southeast 234 269 5,300 2,331 Climbing Atlanta Center
Sun 10:23:00 PM 35.1367 -80.6089 29° Northeast  Level FlightAware Approximate
Sun 10:23:40 PM 35.0956 -80.7997 100° East 283 326 7,300  Level Atlanta Center
Sun 10:24:00 PM 35.2409 -80.5375 30° Northeast  Level FlightAware Approximate
Sun 10:24:24 PM 35.1022 -80.7411 82° East 298 343 8,100  Level Atlanta Center
Sun 10:25:00 PM 35.3338 -80.4649 72° East  Level FlightAware Approximate
Sun 10:25:24 PM 35.1353 -80.6483 66° East 304 350 9,400  Level Atlanta Center
Sun 10:26:00 PM 35.3706 -80.3256 72° East  Level FlightAware Approximate
Sun 10:26:24 PM 35.1869 -80.5622 54° Northeast 318 366 11,800  Level Atlanta Center
Sun 10:27:24 PM 35.2469 -80.4656 53° Northeast 341 392 13,700 1,719 Climbing Atlanta Center
Sun 10:29:22 PM 35.3317 -80.2308 66° East 358 412 16,900 1,627 Climbing Washington Center
Sun 10:30:21 PM 35.3719 -80.1006 69° East 386 444 18,500 1,866 Climbing Washington Center
Sun 10:31:21 PM 35.4247 -79.9736 63° Northeast 402 463 20,600 2,168 Climbing Washington Center
Sun 10:32:20 PM 35.4733 -79.8411 66° East 414 476 22,800 1,900 Climbing Washington Center
Sun 10:33:21 PM 35.5239 -79.7111 64° Northeast 419 482 24,400 1,500 Climbing Washington Center
Sun 10:34:20 PM 35.5764 -79.5811 64° Northeast 438 504 25,800 1,250 Climbing Washington Center
Sun 10:35:21 PM 35.6603 -79.4394 54° Northeast 459 528 26,900 1,200 Climbing Washington Center
Sun 10:36:20 PM 35.7394 -79.3103 53° Northeast 466 536 28,200 1,210 Climbing Washington Center
Sun 10:37:20 PM 35.8208 -79.1758 53° Northeast 472 543 29,300 1,180 Climbing Washington Center
Sun 10:38:22 PM 35.9061 -79.0411 52° Northeast 486 559 30,600 1,600 Climbing Washington Center
Sun 10:39:20 PM 35.9850 -78.9086 54° Northeast 493 567 32,500 1,210 Climbing Washington Center
Sun 10:40:21 PM 36.0639 -78.7706 55° Northeast 488 562 33,000 248 Climbing Washington Center
Sun 10:41:21 PM 36.1444 -78.6375 53° Northeast 488 562 33,000  Level Washington Center
Sun 10:42:22 PM 36.2272 -78.5017 53° Northeast 488 562 33,000  Level Washington Center
Sun 10:43:23 PM 36.3097 -78.3656 53° Northeast 488 562 33,000  Level Washington Center
Sun 10:44:21 PM 36.3878 -78.2289 55° Northeast 488 562 33,000  Level Washington Center
Sun 10:45:22 PM 36.4681 -78.0922 54° Northeast 488 562 33,000  Level Washington Center
Sun 10:46:22 PM 36.5500 -77.9525 54° Northeast 488 562 33,000  Level Washington Center
Sun 10:47:20 PM 36.6278 -77.8178 54° Northeast 488 562 33,000  Level Washington Center
Sun 10:48:20 PM 36.7097 -77.6750 54° Northeast 488 562 33,000  Level Washington Center
Sun 10:49:21 PM 36.7892 -77.5369 54° Northeast 488 562 33,000  Level Washington Center
Sun 10:50:20 PM 36.8706 -77.3989 54° Northeast 488 562 33,000  Level Washington Center
Sun 10:51:21 PM 36.9519 -77.2553 55° Northeast 488 562 33,000  Level Washington Center
Sun 10:52:20 PM 37.0353 -77.1139 54° Northeast 488 562 33,000  Level Washington Center
Sun 10:53:22 PM 37.1119 -76.9722 56° Northeast 488 562 33,000  Level Washington Center
Sun 10:54:20 PM 37.1864 -76.8406 55° Northeast 498 573 33,000  Level Washington Center
Sun 10:55:22 PM 37.2692 -76.6958 54° Northeast 503 579 33,000  Level Washington Center
Sun 10:56:21 PM 37.3497 -76.5533 55° Northeast 508 585 33,000  Level Washington Center
Sun 10:57:21 PM 37.4361 -76.4131 52° Northeast 508 585 33,000  Level Washington Center
Sun 10:58:21 PM 37.5517 -76.3147 34° Northeast 493 567 33,000  Level Washington Center
Sun 10:59:21 PM 37.6689 -76.2267 31° Northeast 493 567 33,000  Level Washington Center
Sun 11:00:22 PM 37.7903 -76.1358 31° Northeast 493 567 33,000  Level Washington Center
Sun 11:01:23 PM 37.9053 -76.0469 31° Northeast 493 567 33,000  Level Washington Center
Sun 11:02:20 PM 38.0350 -75.9425 32° Northeast 493 567 33,000  Level Washington Center
Sun 11:03:21 PM 38.1519 -75.8506 32° Northeast 493 567 33,000  Level Washington Center
Sun 11:04:20 PM 38.2689 -75.7608 31° Northeast 493 567 33,000  Level Washington Center
Sun 11:05:20 PM 38.3753 -75.6792 31° Northeast 493 567 33,000  Level Washington Center
Sun 11:06:20 PM 38.4942 -75.5864 31° Northeast 493 567 33,000  Level Washington Center
Sun 11:07:20 PM 38.6089 -75.4881 34° Northeast 493 567 33,000  Level Washington Center
Sun 11:08:20 PM 38.7275 -75.3975 31° Northeast 493 567 33,000  Level Washington Center
Sun 11:09:20 PM 38.8461 -75.3011 32° Northeast 493 567 33,000  Level Washington Center
Sun 11:10:20 PM 38.9792 -75.1939 32° Northeast 502 578 33,000  Level Washington Center
Sun 11:11:20 PM 39.0956 -75.0994 32° Northeast 502 578 33,000  Level Washington Center
Sun 11:12:20 PM 39.2139 -75.0022 32° Northeast 497 572 33,000  Level Washington Center
Sun 11:14:12 PM 39.4331 -74.8217 32° Northeast 497 572 33,000  Level New York Center
Sun 11:15:12 PM 39.5361 -74.7358 33° Northeast 497 572 33,000  Level New York Center
Sun 11:16:12 PM 39.6669 -74.6272 33° Northeast 502 578 33,000  Level New York Center
Sun 11:17:12 PM 39.7700 -74.5383 34° Northeast 497 572 33,000  Level New York Center
Sun 11:18:12 PM 39.8956 -74.4586 26° Northeast 497 572 33,000  Level New York Center
Sun 11:19:12 PM 40.0258 -74.4250 11° North 485 558 33,000  Level New York Center
Sun 11:20:12 PM 40.1578 -74.3992 North 472 543 33,000  Level New York Center
Sun 11:21:12 PM 40.2881 -74.3708 North 472 543 33,000  Level New York Center
Sun 11:22:12 PM 40.4222 -74.3397 10° North 472 543 33,000  Level New York Center
Sun 11:23:12 PM 40.5542 -74.3136 North 472 543 33,000 -50 Level New York Center
Sun 11:24:12 PM 40.6844 -74.2794 11° North 472 543 32,900 -1,535 Descending New York Center
Sun 11:26:04 PM 40.9317 -74.2258 North 476 548 28,600 -2,379 Descending Boston Center
Sun 11:27:06 PM 41.0656 -74.1964 North 482 555 26,000 -1,300 Descending Boston Center
Sun 11:28:04 PM 41.1931 -74.1669 10° North 482 555 26,000  Level Boston Center
Sun 11:29:05 PM 41.3353 -74.1319 10° North 477 549 26,000 -454 Level Boston Center
Sun 11:30:03 PM 41.4650 -74.1022 10° North 472 543 25,100 -1,412 Descending Boston Center
Sun 11:31:04 PM 41.5778 -74.0775 North 467 537 23,200 -1,983 Descending Boston Center
Sun 11:32:04 PM 41.7075 -74.0500 North 460 529 21,100 -2,479 Descending Boston Center
Sun 11:33:05 PM 41.8225 -74.0197 11° North 431 496 18,200 -2,622 Descending Boston Center
Sun 11:34:03 PM 41.9333 -73.9944 10° North 406 467 15,900 -2,424 Descending Boston Center
Sun 11:34:44 PM 41.9981 -73.9794 10° North 396 456 14,200 -2,583 Descending Boston Center
Sun 11:35:15 PM 42.0567 -73.9697 North 387 445 12,800 -2,400 Descending Boston Center
Sun 11:36:04 PM 42.1339 -73.9492 11° North 383 441 11,000 -1,091 Descending Boston Center
Sun 11:37:05 PM 42.2322 -73.9233 11° North 344 396 10,800 -942 Descending Boston Center
Sun 11:38:05 PM 42.3033 -73.9028 12° North 300 345 9,100 -1,835 Descending Boston Center
Sun 11:39:06 PM 42.3914 -73.8767 12° North 290 334 7,100 -1,983 Descending Boston Center
Sun 11:40:03 PM 42.4625 -73.8558 12° North 285 328 5,200 -1,450 Descending Boston Center
Sun 11:41:06 PM 42.5397 -73.8350 11° North 274 315 4,200 -800 Descending Boston Center
Sun 11:42:03 PM 42.5900 -73.8192 13° North 249 287 3,600 -1,008 Descending Boston Center
Sun 11:43:05 PM 42.6506 -73.8036 11° North 218 251 2,200 -800 Descending Boston Center
Sun 11:44:03 PM 42.7175 -73.7881 10° North 211 243 2,000 -207 Descending Boston Center

Login

Don't have an account? Register now (free) for customized features, flight alerts, and more!